Time;durP1;ratioP1;P1;durP2;ratioP2;P2;SDS_P1;SDS_P2;PMS_P1;PMS_P2;Temp;Humidity;BMP_temperature;BMP_pressure;BME280_temperature;BME280_humidity;BME280_pressure;Samples;Min_cycle;Max_cycle;Signal;HPM_P1;HPM_P2
2023/03/22 00:01:19;;;;;;;8.67;5.37;;;;;;;9.59;97.81;99219.94;6227501;22;20192;-86
2023/03/22 00:03:48;;;;;;;7.33;5.03;;;;;;;9.58;98.05;99212.97;6227347;22;20202;-88
2023/03/22 00:06:15;;;;;;;5.63;5.13;;;;;;;9.58;98.18;99215.63;6226867;22;20216;-87
2023/03/22 00:08:49;;;;;;;5.73;5.03;;;;;;;9.57;98.40;99212.13;6227351;22;20218;-86
2023/03/22 00:11:16;;;;;;;5.50;5.00;;;;;;;9.59;98.53;99212.75;6227850;22;20156;-88
2023/03/22 00:13:45;;;;;;;5.90;5.10;;;;;;;9.59;98.79;99217.28;6252475;22;20172;-88
2023/03/22 00:16:18;;;;;;;6.13;4.50;;;;;;;9.64;98.34;99214.75;6203712;22;20156;-87
2023/03/22 00:18:45;;;;;;;6.40;5.07;;;;;;;9.63;98.06;99211.25;6252201;22;20243;-88
2023/03/22 00:21:16;;;;;;;6.43;4.97;;;;;;;9.66;98.10;99208.13;6203828;22;20184;-87
2023/03/22 00:23:47;;;;;;;5.93;5.20;;;;;;;9.70;98.05;99208.50;6226586;22;20247;-86
2023/03/22 00:26:18;;;;;;;5.23;4.47;;;;;;;9.71;98.25;99202.09;6227155;22;20158;-87
2023/03/22 00:28:45;;;;;;;5.20;4.70;;;;;;;9.73;98.51;99198.16;6226941;22;20176;-87
2023/03/22 00:31:13;;;;;;;7.53;5.07;;;;;;;9.74;98.50;99199.00;6226801;22;20199;-88
2023/03/22 00:33:41;;;;;;;7.67;5.00;;;;;;;9.77;98.41;99197.72;6202736;22;20172;-87
2023/03/22 00:36:12;;;;;;;5.00;4.07;;;;;;;9.78;98.58;99194.81;6227082;22;20255;-87
2023/03/22 00:38:41;;;;;;;5.43;4.40;;;;;;;9.81;98.16;99186.34;6229121;22;20586;-87
2023/03/22 00:41:21;;;;;;;5.17;4.67;;;;;;;9.81;98.24;99185.53;6227877;22;20240;-88
2023/03/22 00:43:51;;;;;;;5.93;4.87;;;;;;;9.81;98.52;99181.00;6202773;22;20163;-87
2023/03/22 00:46:29;;;;;;;4.80;4.40;;;;;;;9.86;98.59;99183.81;6229315;22;20165;-87
2023/03/22 00:49:01;;;;;;;5.17;4.30;;;;;;;9.96;98.27;99178.75;6201824;22;20169;-87
2023/03/22 00:51:29;;;;;;;5.53;4.13;;;;;;;9.97;98.24;99180.38;6227751;22;20168;-86
2023/03/22 00:53:59;;;;;;;4.53;4.13;;;;;;;9.95;98.38;99176.28;6253189;22;20247;-88
2023/03/22 00:56:28;;;;;;;5.37;4.23;;;;;;;9.93;98.54;99170.34;6228233;22;20554;-87
2023/03/22 00:59:03;;;;;;;4.40;3.90;;;;;;;9.95;98.70;99171.75;6204706;22;20226;-86
2023/03/22 01:01:29;;;;;;;4.30;3.40;;;;;;;9.98;98.76;99170.50;6201301;22;20632;-86
2023/03/22 01:03:59;;;;;;;4.63;3.90;;;;;;;9.99;98.92;99175.59;6226795;22;20169;-86
2023/03/22 01:06:25;;;;;;;5.47;3.87;;;;;;;10.00;98.85;99171.88;6227089;22;20199;-87
2023/03/22 01:08:58;;;;;;;4.40;3.50;;;;;;;10.03;98.77;99166.06;6227420;22;20211;-87
2023/03/22 01:11:43;;;;;;;4.83;3.53;;;;;;;10.02;99.29;99169.81;6234875;22;20599;-88
2023/03/22 01:14:16;;;;;;;3.77;3.37;;;;;;;10.03;99.21;99167.97;6202044;22;20190;-85
2023/03/22 01:16:44;;;;;;;4.27;3.87;;;;;;;10.05;99.26;99165.84;6227982;22;20159;-86
2023/03/22 01:19:14;;;;;;;3.30;3.00;;;;;;;10.11;98.87;99162.28;6227013;22;20164;-86
2023/03/22 01:21:41;;;;;;;5.53;3.47;;;;;;;10.16;98.85;99157.09;6201610;22;20188;-86
2023/03/22 01:24:08;;;;;;;4.27;3.80;;;;;;;10.18;98.62;99152.31;6226128;22;20202;-87
2023/03/22 01:26:34;;;;;;;4.07;3.67;;;;;;;10.12;98.70;99156.66;6226368;22;20172;-86
2023/03/22 01:29:06;;;;;;;3.87;3.47;;;;;;;10.11;98.50;99155.06;6229094;22;20168;-86
2023/03/22 01:31:33;;;;;;;3.70;3.30;;;;;;;10.13;98.54;99149.47;6226514;22;20172;-89
2023/03/22 01:34:05;;;;;;;4.77;3.90;;;;;;;10.15;98.75;99153.59;6226518;22;20172;-87
2023/03/22 01:36:34;;;;;;;3.97;3.57;;;;;;;10.20;98.95;99144.88;6226935;22;20172;-86
2023/03/22 01:39:03;;;;;;;3.73;3.43;;;;;;;10.20;99.19;99147.56;6226936;22;20510;-88
2023/03/22 01:41:34;;;;;;;3.70;3.40;;;;;;;10.17;99.43;99139.16;6226477;22;20271;-87
2023/03/22 01:44:18;;;;;;;5.77;3.23;;;;;;;10.20;99.34;99147.56;6204928;22;20247;-87
2023/03/22 01:46:56;;;;;;;3.63;3.33;;;;;;;10.25;99.46;99146.88;6226951;22;20164;-86
2023/03/22 01:49:32;;;;;;;4.20;3.63;;;;;;;10.18;99.58;99146.13;6203444;22;20160;-86
2023/03/22 01:52:06;;;;;;;4.70;3.97;;;;;;;10.17;99.96;99147.19;6202039;22;20175;-87
2023/03/22 01:55:00;;;;;;;4.30;3.63;;;;;;;10.19;100.00;99143.22;6232147;22;20261;-87
2023/03/22 01:57:42;;;;;;;4.03;3.63;;;;;;;10.18;100.00;99151.47;6207265;22;20249;-86
2023/03/22 02:00:17;;;;;;;4.90;3.80;;;;;;;10.18;100.00;99141.59;6228137;22;20191;-87
2023/03/22 02:03:06;;;;;;;5.37;3.80;;;;;;;10.20;100.00;99147.56;6230788;22;20252;-86
2023/03/22 02:05:39;;;;;;;4.20;3.50;;;;;;;10.21;99.79;99153.72;6220900;22;20200;-87
2023/03/22 02:08:08;;;;;;;3.70;3.37;;;;;;;10.20;99.80;99152.09;6201109;22;20168;-86
2023/03/22 02:10:52;;;;;;;3.60;3.30;;;;;;;10.30;99.44;99138.97;6229704;22;20164;-86
2023/03/22 02:13:59;;;;;;;3.63;3.33;;;;;;;10.32;99.29;99143.03;6202306;22;20206;-86
2023/03/22 02:17:16;;;;;;;3.57;3.27;;;;;;;10.32;99.11;99134.19;6255538;22;20168;-86
2023/03/22 02:20:38;;;;;;;4.27;2.83;;;;;;;10.33;99.36;99131.28;6229412;22;20164;-87
2023/03/22 02:23:08;;;;;;;3.23;2.93;;;;;;;10.36;99.07;99136.16;6213551;22;20195;-88
2023/03/22 02:26:07;;;;;;;3.40;3.10;;;;;;;10.41;98.96;99144.31;6251302;22;20195;-87
2023/03/22 02:28:41;;;;;;;3.70;3.30;;;;;;;10.40;98.90;99141.91;6201659;22;20169;-87
2023/03/22 02:31:43;;;;;;;4.60;3.00;;;;;;;10.43;98.75;99138.75;6252746;22;20164;-85
2023/03/22 02:34:49;;;;;;;3.33;3.03;;;;;;;10.44;98.47;99137.72;6251775;22;20247;-86
2023/03/22 02:37:47;;;;;;;3.93;3.50;;;;;;;10.45;98.49;99134.78;6251123;22;20164;-87
2023/03/22 02:40:24;;;;;;;3.47;3.13;;;;;;;10.47;98.24;99134.56;6251300;22;20163;-87
2023/03/22 02:43:15;;;;;;;3.50;3.20;;;;;;;10.46;98.46;99136.41;6251622;22;20168;-85
2023/03/22 02:45:55;;;;;;;3.40;3.10;;;;;;;10.45;98.30;99139.34;6226140;22;20188;-86
2023/03/22 02:48:27;;;;;;;3.70;3.40;;;;;;;10.44;98.70;99132.34;6201149;22;20187;-85
2023/03/22 02:51:23;;;;;;;4.10;3.40;;;;;;;10.47;98.59;99131.88;6227008;22;20180;-87
2023/03/22 02:53:57;;;;;;;3.73;3.43;;;;;;;10.43;98.59;99136.91;6250094;22;20490;-85
2023/03/22 02:56:33;;;;;;;3.60;3.30;;;;;;;10.42;99.14;99135.25;6204640;22;20171;-90
2023/03/22 02:59:03;;;;;;;4.50;3.30;;;;;;;10.46;98.79;99141.78;6205532;23;20262;-87
2023/03/22 03:01:33;;;;;;;5.17;3.40;;;;;;;10.44;98.71;99137.72;6197908;23;20193;-85
2023/03/22 03:04:03;;;;;;;4.30;3.50;;;;;;;10.44;98.64;99129.69;6197774;23;20206;-86
2023/03/22 03:06:38;;;;;;;3.70;3.40;;;;;;;10.51;98.47;99141.91;6198300;23;20269;-86
2023/03/22 03:09:06;;;;;;;4.33;3.33;;;;;;;10.49;98.65;99140.53;6198267;23;20169;-87
2023/03/22 03:11:35;;;;;;;3.47;3.17;;;;;;;10.51;98.62;99133.88;6222999;23;20179;-85
2023/03/22 03:14:04;;;;;;;3.53;3.23;;;;;;;10.52;98.55;99134.69;6174085;23;20205;-85
2023/03/22 03:16:35;;;;;;;3.20;2.90;;;;;;;10.57;98.45;99138.31;6197446;23;20195;-85
2023/03/22 03:19:14;;;;;;;4.40;3.20;;;;;;;10.57;98.66;99142.84;6199525;23;20171;-87
2023/03/22 03:21:50;;;;;;;3.47;3.17;;;;;;;10.60;98.54;99147.72;6222488;23;20242;-86
2023/03/22 03:24:38;;;;;;;3.20;2.90;;;;;;;10.61;98.27;99152.06;6197502;23;20651;-88
2023/03/22 03:27:24;;;;;;;;;;;;;;;;;;;;;
2023/03/22 03:30:05;;;;;;;3.10;2.90;;;;;;;10.70;97.93;99157.88;6200060;23;20163;-87
2023/03/22 03:32:40;;;;;;;3.40;3.10;;;;;;;10.59;98.35;99148.81;6168638;23;20165;-87
2023/03/22 03:35:21;;;;;;;3.67;3.20;;;;;;;10.63;98.39;99160.69;6197973;23;20163;-86
2023/03/22 03:37:52;;;;;;;3.83;3.43;;;;;;;10.62;98.37;99156.38;6174641;23;20552;-87
2023/03/22 03:40:37;;;;;;;3.50;3.20;;;;;;;10.66;98.42;99159.41;6201917;23;20188;-88
2023/03/22 03:43:05;;;;;;;3.47;3.17;;;;;;;10.66;98.73;99162.06;6197621;23;20181;-85
2023/03/22 03:45:38;;;;;;;3.67;2.93;;;;;;;10.61;98.70;99157.41;6197216;23;20223;-87
2023/03/22 03:48:08;;;;;;;3.30;2.97;;;;;;;10.63;98.83;99154.50;6182857;23;20222;-86
2023/03/22 03:50:37;;;;;;;3.50;3.17;;;;;;;10.60;98.98;99153.91;6169440;23;20157;-85
2023/03/22 03:53:04;;;;;;;3.23;2.93;;;;;;;10.57;98.80;99153.56;6197610;23;20176;-86
2023/03/22 03:55:32;;;;;;;3.73;3.20;;;;;;;10.58;99.32;99150.66;6197864;23;20173;-86
2023/03/22 03:57:59;;;;;;;3.17;2.93;;;;;;;10.61;98.95;99154.72;6197341;23;20204;-86
2023/03/22 04:00:29;;;;;;;3.50;3.20;;;;;;;10.60;98.83;99156.59;6172208;22;20191;-87
2023/03/22 04:03:21;;;;;;;3.10;2.90;;;;;;;10.62;99.12;99152.88;6227469;23;20169;-86
2023/03/22 04:06:17;;;;;;;3.30;3.00;;;;;;;10.65;98.97;99155.91;6234776;23;20260;-89
2023/03/22 04:08:52;;;;;;;3.50;3.20;;;;;;;10.60;98.96;99156.59;6198015;23;20168;-85
2023/03/22 04:11:24;;;;;;;3.47;3.17;;;;;;;10.57;99.60;99156.25;6222645;23;20175;-85
2023/03/22 04:13:55;;;;;;;5.57;3.40;;;;;;;10.58;99.47;99158.69;6198306;23;20165;-87
2023/03/22 04:16:23;;;;;;;3.30;2.87;;;;;;;10.57;99.47;99161.59;6222207;23;20607;-85
2023/03/22 04:18:51;;;;;;;3.43;3.13;;;;;;;10.54;99.48;99157.50;6197244;23;20192;-87
2023/03/22 04:21:23;;;;;;;4.37;3.10;;;;;;;10.55;99.68;99159.16;6197812;23;20189;-86
2023/03/22 04:23:58;;;;;;;3.47;3.20;;;;;;;10.53;99.99;99147.88;6198930;23;20164;-87
2023/03/22 04:26:31;;;;;;;3.30;3.07;;;;;;;10.53;99.59;99155.06;6198337;23;20164;-86
2023/03/22 04:29:13;;;;;;;3.57;3.27;;;;;;;10.52;100.00;99153.44;6178082;23;20168;-85
2023/03/22 04:31:47;;;;;;;3.50;3.20;;;;;;;10.50;99.86;99150.16;6198222;23;20183;-87
2023/03/22 04:34:22;;;;;;;3.60;3.30;;;;;;;10.45;100.00;99148.19;6198773;23;20164;-87
2023/03/22 04:37:01;;;;;;;3.20;2.90;;;;;;;10.40;100.00;99155.28;6194054;23;20196;-88
2023/03/22 04:39:48;;;;;;;3.40;3.10;;;;;;;10.40;100.00;99155.28;6204354;23;20228;-85
2023/03/22 04:42:38;;;;;;;4.03;3.37;;;;;;;10.34;100.00;99154.34;6181428;23;20185;-86
2023/03/22 04:45:13;;;;;;;5.40;3.43;;;;;;;10.34;100.00;99162.38;6200622;23;20220;-88
2023/03/22 04:47:43;;;;;;;3.67;3.37;;;;;;;10.33;100.00;99165.28;6197653;23;20240;-85
2023/03/22 04:50:12;;;;;;;3.50;3.20;;;;;;;10.38;100.00;99168.91;6173279;23;20247;-86
2023/03/22 04:52:47;;;;;;;3.50;3.20;;;;;;;10.34;100.00;99169.59;6175292;23;20171;-86
2023/03/22 04:55:14;;;;;;;4.53;3.33;;;;;;;10.33;100.00;99170.63;6221361;23;20172;-86
2023/03/22 04:57:45;;;;;;;3.90;3.27;;;;;;;10.34;100.00;99165.06;6178548;22;20274;-87
2023/03/22 05:00:14;;;;;;;3.73;3.40;;;;;;;10.34;100.00;99166.91;6202918;22;20179;-86
2023/03/22 05:02:42;;;;;;;12.90;9.87;;;;;;;10.32;100.00;99158.28;6202156;22;20646;-88
2023/03/22 05:05:18;;;;;;;7.40;6.70;;;;;;;10.36;100.00;99167.50;6205556;22;20188;-86
2023/03/22 05:07:49;;;;;;;5.73;5.13;;;;;;;10.36;100.00;99167.50;6227337;22;20173;-85
2023/03/22 05:10:18;;;;;;;4.10;3.70;;;;;;;10.37;100.00;99164.59;6203120;22;20244;-86
2023/03/22 05:12:45;;;;;;;5.27;4.77;;;;;;;10.42;100.00;99167.38;6201965;22;20179;-86
2023/03/22 05:15:16;;;;;;;6.60;4.87;;;;;;;10.46;100.00;99162.38;6203900;22;20156;-87
2023/03/22 05:17:44;;;;;;;4.47;4.07;;;;;;;10.40;100.00;99161.47;6227539;22;20175;-86
2023/03/22 05:20:12;;;;;;;4.37;3.53;;;;;;;10.44;100.00;99159.97;6226720;22;20245;-87
2023/03/22 05:22:49;;;;;;;5.83;3.70;;;;;;;10.52;100.00;99170.31;6204544;22;20524;-88
2023/03/22 05:25:18;;;;;;;6.87;5.37;;;;;;;10.51;100.00;99170.56;6252304;22;20171;-88
2023/03/22 05:27:53;;;;;;;19.10;14.40;;;;;;;10.60;100.00;99169.97;6202835;22;20171;-87
2023/03/22 05:30:33;;;;;;;27.73;21.83;;;;;;;10.69;99.29;99169.63;6230063;22;20209;-86
2023/03/22 05:33:29;;;;;;;9.63;8.63;;;;;;;10.67;99.09;99169.88;6231459;22;20181;-88
2023/03/22 05:35:56;;;;;;;5.33;4.40;;;;;;;10.68;99.04;99170.72;6201491;22;20176;-88
2023/03/22 05:38:26;;;;;;;3.90;3.60;;;;;;;10.75;98.80;99177.59;6201169;22;20175;-87
2023/03/22 05:40:59;;;;;;;3.57;3.27;;;;;;;10.79;98.82;99169.88;6227253;22;20168;-87
2023/03/22 05:43:31;;;;;;;4.97;3.47;;;;;;;10.83;98.63;99171.88;6203952;22;20180;-86
2023/03/22 05:46:01;;;;;;;3.60;3.30;;;;;;;10.87;98.88;99172.25;6227356;22;20255;-86
2023/03/22 05:48:43;;;;;;;3.90;3.50;;;;;;;10.96;99.00;99179.69;6208220;22;20623;-85
2023/03/22 05:51:16;;;;;;;3.53;3.23;;;;;;;11.08;98.26;99185.06;6226709;22;20176;-88
2023/03/22 05:53:47;;;;;;;3.60;3.30;;;;;;;11.13;97.80;99185.19;6227028;22;20190;-87
2023/03/22 05:56:22;;;;;;;3.60;3.30;;;;;;;11.27;97.67;99193.78;6251613;22;20214;-88
2023/03/22 05:58:57;;;;;;;4.17;3.30;;;;;;;11.38;97.00;99190.28;6197273;23;20275;-85
2023/03/22 06:01:26;;;;;;;4.47;3.40;;;;;;;11.46;96.71;99200.66;6196120;23;20169;-87
2023/03/22 06:04:20;;;;;;;3.73;3.40;;;;;;;11.56;95.59;99202.75;6202921;23;20172;-86
2023/03/22 06:06:59;;;;;;;3.50;3.20;;;;;;;11.60;95.56;99203.91;6198033;23;20267;-86
2023/03/22 06:09:46;;;;;;;3.90;3.50;;;;;;;11.73;95.04;99209.84;6204597;23;20183;-86
2023/03/22 06:12:24;;;;;;;10.30;9.40;;;;;;;11.86;94.34;99209.56;6198061;23;20154;-88
2023/03/22 06:15:15;;;;;;;5.10;4.67;;;;;;;11.98;93.78;99214.09;6225491;23;20176;-87
2023/03/22 06:18:07;;;;;;;4.40;4.10;;;;;;;12.09;93.29;99219.41;6216431;23;20169;-87
2023/03/22 06:20:39;;;;;;;5.43;3.70;;;;;;;12.22;92.85;99216.47;6197855;23;20213;-87
2023/03/22 06:23:15;;;;;;;5.20;3.77;;;;;;;12.37;92.41;99218.59;6198066;23;20181;-85
2023/03/22 06:25:44;;;;;;;4.10;3.70;;;;;;;12.54;91.40;99216.78;6222912;23;20169;-86
2023/03/22 06:28:14;;;;;;;3.43;3.17;;;;;;;12.66;91.31;99222.06;6198686;23;20425;-87
2023/03/22 06:30:51;;;;;;;3.40;3.10;;;;;;;12.85;90.84;99218.09;6223117;23;20164;-88
2023/03/22 06:33:40;;;;;;;3.30;3.03;;;;;;;13.02;89.99;99221.59;6208889;23;20162;-86
2023/03/22 06:36:25;;;;;;;3.97;3.37;;;;;;;13.24;89.32;99224.41;6227532;23;20177;-85
2023/03/22 06:39:11;;;;;;;3.50;3.20;;;;;;;13.42;88.29;99226.00;6181083;23;20165;-86
2023/03/22 06:41:42;;;;;;;3.90;3.30;;;;;;;13.59;87.99;99227.59;6198950;23;20647;-85
2023/03/22 06:44:09;;;;;;;5.07;3.00;;;;;;;13.72;87.58;99226.41;6173786;23;20602;-88
2023/03/22 06:46:51;;;;;;;4.63;3.00;;;;;;;13.86;86.93;99230.34;6258858;23;20191;-87
2023/03/22 06:49:34;;;;;;;5.23;3.40;;;;;;;14.02;86.29;99228.66;6180504;23;20183;-85
2023/03/22 06:52:02;;;;;;;6.10;3.00;;;;;;;14.16;85.65;99229.09;6173149;23;20244;-86
2023/03/22 06:54:29;;;;;;;6.10;3.30;;;;;;;14.27;85.34;99234.34;6222810;23;20170;-85
2023/03/22 06:56:57;;;;;;;5.47;4.97;;;;;;;14.38;85.09;99229.91;6198318;23;20213;-86
2023/03/22 06:59:24;;;;;;;3.70;3.20;;;;;;;14.55;85.29;99236.03;6219723;23;20281;-84
2023/03/22 07:01:55;;;;;;;5.30;3.23;;;;;;;14.66;84.69;99224.25;6197843;23;20191;-84
2023/03/22 07:04:23;;;;;;;4.87;3.13;;;;;;;14.75;83.98;99228.09;6197688;23;20228;-86
2023/03/22 07:06:52;;;;;;;5.33;3.53;;;;;;;14.77;83.46;99223.28;6198190;23;20274;-84
2023/03/22 07:09:23;;;;;;;3.50;3.20;;;;;;;14.86;82.99;99223.63;6197779;23;20173;-85
2023/03/22 07:11:52;;;;;;;4.17;3.47;;;;;;;14.93;82.11;99221.53;6222958;23;20161;-84
2023/03/22 07:14:25;;;;;;;4.00;3.10;;;;;;;15.09;81.77;99219.75;6198048;23;20168;-86
2023/03/22 07:17:07;;;;;;;3.40;3.10;;;;;;;15.28;80.74;99229.88;6204025;23;20211;-84
2023/03/22 07:19:35;;;;;;;3.90;3.40;;;;;;;15.41;80.31;99231.31;6223473;23;20201;-85
2023/03/22 07:22:07;;;;;;;6.03;3.40;;;;;;;15.59;79.33;99232.78;6198921;23;20215;-85
2023/03/22 07:24:41;;;;;;;3.80;3.17;;;;;;;15.85;78.67;99224.56;6198207;23;20172;-84
2023/03/22 07:27:25;;;;;;;4.63;3.10;;;;;;;16.14;78.47;99224.16;6203726;23;20252;-85
2023/03/22 07:29:52;;;;;;;4.30;2.97;;;;;;;16.32;77.36;99225.53;6199941;23;20165;-84
2023/03/22 07:32:20;;;;;;;3.10;2.80;;;;;;;16.57;77.27;99223.69;6201509;23;20248;-85
2023/03/22 07:34:58;;;;;;;3.77;3.00;;;;;;;16.89;75.13;99218.06;6225702;23;20157;-84
2023/03/22 07:37:25;;;;;;;6.00;3.07;;;;;;;17.30;74.10;99223.47;6200716;23;20165;-86
2023/03/22 07:39:53;;;;;;;4.27;3.43;;;;;;;17.61;72.38;99227.75;6203299;23;20280;-85
2023/03/22 07:42:26;;;;;;;5.70;2.90;;;;;;;17.71;71.57;99219.63;6205641;23;20185;-84
2023/03/22 07:45:23;;;;;;;5.47;3.67;;;;;;;17.71;71.37;99222.31;6209911;23;20162;-85
2023/03/22 07:48:14;;;;;;;8.27;4.27;;;;;;;17.76;71.24;99216.88;6207954;23;20177;-85
2023/03/22 07:51:04;;;;;;;9.40;7.27;;;;;;;17.76;70.65;99219.59;6217302;23;20169;-86
2023/03/22 07:53:35;;;;;;;12.17;10.37;;;;;;;17.82;70.73;99215.78;6203207;23;20213;-86
2023/03/22 07:56:03;;;;;;;10.40;8.57;;;;;;;17.76;70.46;99214.19;6225222;23;20169;-85
2023/03/22 07:58:31;;;;;;;9.07;4.80;;;;;;;17.57;71.66;99210.41;6212148;22;20201;-85
2023/03/22 08:01:07;;;;;;;7.67;3.80;;;;;;;17.45;71.14;99212.63;6251924;23;20228;-85
2023/03/22 08:04:08;;;;;;;4.17;3.30;;;;;;;17.32;72.35;99213.16;6168833;23;20196;-86
2023/03/22 08:06:51;;;;;;;3.73;3.43;;;;;;;17.22;71.34;99213.19;6212524;22;20192;-85
2023/03/22 08:09:18;;;;;;;6.57;3.57;;;;;;;17.09;71.86;99206.44;6231183;22;20192;-85
2023/03/22 08:11:45;;;;;;;5.80;4.00;;;;;;;17.02;72.25;99214.84;6206840;22;20172;-85
2023/03/22 08:14:12;;;;;;;4.27;3.80;;;;;;;17.09;72.29;99211.84;6232315;22;20168;-85
2023/03/22 08:16:42;;;;;;;5.53;3.70;;;;;;;17.11;72.27;99213.22;6209677;22;20168;-84
2023/03/22 08:19:11;;;;;;;4.40;3.70;;;;;;;17.17;72.41;99209.38;6258111;22;20165;-86
2023/03/22 08:21:41;;;;;;;4.27;3.87;;;;;;;17.20;72.47;99199.13;6207947;22;20171;-85
2023/03/22 08:24:22;;;;;;;6.00;4.03;;;;;;;17.26;71.81;99206.97;6235526;22;20169;-86
2023/03/22 08:26:58;;;;;;;4.40;4.00;;;;;;;17.31;71.76;99209.63;6234285;22;20164;-85
2023/03/22 08:29:32;;;;;;;4.67;4.20;;;;;;;17.35;70.86;99208.03;6208557;22;20171;-86
2023/03/22 08:32:12;;;;;;;4.43;4.03;;;;;;;17.37;70.51;99205.84;6234243;22;20153;-85
2023/03/22 08:34:39;;;;;;;4.73;4.00;;;;;;;17.44;70.91;99217.22;6232268;22;20168;-85
2023/03/22 08:37:10;;;;;;;4.93;4.17;;;;;;;17.55;69.33;99207.97;6229552;22;20157;-85
2023/03/22 08:39:39;;;;;;;5.90;4.37;;;;;;;17.66;70.27;99211.50;6254354;22;20164;-85
2023/03/22 08:42:27;;;;;;;4.20;3.53;;;;;;;17.79;69.92;99207.38;6260091;22;20183;-85
2023/03/22 08:44:54;;;;;;;3.60;3.07;;;;;;;17.86;66.52;99200.59;6227854;22;20175;-87
2023/03/22 08:47:29;;;;;;;3.60;3.30;;;;;;;17.98;65.14;99201.06;6227677;22;20614;-86
2023/03/22 08:50:17;;;;;;;3.30;3.00;;;;;;;18.04;65.23;99199.97;6228639;22;20628;-86
2023/03/22 08:53:10;;;;;;;3.30;3.00;;;;;;;18.13;65.05;99194.78;6257349;22;20173;-86
2023/03/22 08:55:56;;;;;;;3.70;3.40;;;;;;;18.22;65.19;99198.53;6202089;22;20171;-86
2023/03/22 08:58:46;;;;;;;3.67;3.37;;;;;;;18.31;66.15;99196.03;6230220;22;20197;-87
2023/03/22 09:01:48;;;;;;;5.10;2.87;;;;;;;18.44;64.60;99196.22;6241620;22;20169;-86
2023/03/22 09:04:16;;;;;;;3.13;2.83;;;;;;;18.56;64.48;99189.66;6200789;22;20189;-87
2023/03/22 09:06:44;;;;;;;3.93;2.83;;;;;;;18.62;64.33;99193.94;6225902;22;20243;-87
2023/03/22 09:09:13;;;;;;;4.57;3.20;;;;;;;18.69;63.33;99186.31;6225464;22;20203;-87
2023/03/22 09:11:51;;;;;;;4.13;3.60;;;;;;;18.72;62.86;99183.03;6227953;22;20176;-86
2023/03/22 09:14:18;;;;;;;3.63;3.33;;;;;;;18.78;63.20;99193.56;6201065;22;20170;-86
2023/03/22 09:16:46;;;;;;;4.20;3.13;;;;;;;19.10;62.84;99198.44;6226173;22;20207;-87
2023/03/22 09:19:15;;;;;;;3.10;2.90;;;;;;;19.32;61.66;99187.91;6226069;22;20228;-88
2023/03/22 09:21:44;;;;;;;4.90;2.70;;;;;;;19.69;61.60;99189.97;6202431;22;20171;-89
2023/03/22 09:24:19;;;;;;;3.50;2.80;;;;;;;19.90;60.76;99181.59;6227272;22;20186;-85
2023/03/22 09:27:11;;;;;;;2.73;2.53;;;;;;;20.17;59.99;99188.00;6204344;22;20160;-86
2023/03/22 09:29:38;;;;;;;2.93;2.40;;;;;;;20.56;58.87;99173.34;6180656;22;20190;-86
2023/03/22 09:32:09;;;;;;;2.83;2.63;;;;;;;20.83;57.95;99175.34;6204052;22;20632;-86
2023/03/22 09:34:38;;;;;;;2.90;2.60;;;;;;;21.08;56.97;99170.31;6201531;22;20166;-86
2023/03/22 09:37:05;;;;;;;2.90;2.43;;;;;;;21.29;56.40;99161.78;6225961;22;20270;-87
2023/03/22 09:39:44;;;;;;;2.67;2.40;;;;;;;21.46;55.72;99162.78;6204485;22;20160;-86
2023/03/22 09:42:39;;;;;;;2.67;2.47;;;;;;;21.56;55.25;99156.34;6201672;22;20206;-86
2023/03/22 09:45:29;;;;;;;2.60;2.40;;;;;;;21.39;55.18;99156.94;6201494;22;20713;-86
2023/03/22 09:47:59;;;;;;;2.67;2.40;;;;;;;21.43;55.02;99157.16;6226021;22;20158;-86
2023/03/22 09:50:30;;;;;;;2.93;2.60;;;;;;;20.92;55.46;99154.50;6226040;22;20183;-86
2023/03/22 09:53:03;;;;;;;2.70;2.50;;;;;;;21.06;55.70;99145.25;6249819;22;20247;-86
2023/03/22 09:55:38;;;;;;;3.60;2.80;;;;;;;20.96;56.12;99141.91;6251019;22;20167;-86
2023/03/22 09:58:11;;;;;;;3.47;3.17;;;;;;;20.90;57.49;99134.97;6200996;22;20282;-86
2023/03/22 10:00:48;;;;;;;2.83;1.80;;;;;;;20.61;56.92;99151.50;6227207;22;20176;-86
2023/03/22 10:03:42;;;;;;;3.33;2.30;;;;;;;20.81;56.83;99140.25;6227261;22;20195;-88
2023/03/22 10:06:19;;;;;;;10.93;3.57;;;;;;;20.52;57.64;99145.91;6226796;22;20188;-86
2023/03/22 10:09:18;;;;;;;3.10;2.80;;;;;;;20.96;56.09;99145.44;6227495;22;20197;-88
2023/03/22 10:11:55;;;;;;;3.47;3.03;;;;;;;20.39;56.44;99151.31;6202684;22;20165;-85
2023/03/22 10:14:41;;;;;;;3.83;3.20;;;;;;;20.80;55.85;99144.09;6228569;22;20168;-87
2023/03/22 10:17:15;;;;;;;3.43;3.13;;;;;;;20.81;55.34;99139.47;6227748;22;20246;-87
2023/03/22 10:19:59;;;;;;;3.87;3.50;;;;;;;19.94;56.94;99144.56;6227056;22;20160;-88
2023/03/22 10:22:31;;;;;;;3.70;3.40;;;;;;;19.85;57.36;99144.41;6227618;22;20186;-86
2023/03/22 10:25:03;;;;;;;4.90;3.33;;;;;;;19.56;58.61;99139.03;6227863;22;20171;-86
2023/03/22 10:27:33;;;;;;;3.73;3.43;;;;;;;19.70;57.78;99137.25;6227958;22;20170;-85
2023/03/22 10:30:32;;;;;;;3.23;2.93;;;;;;;20.07;57.11;99135.66;6228381;22;20167;-86
2023/03/22 10:33:07;;;;;;;3.83;3.13;;;;;;;19.66;57.71;99141.66;6224670;22;20175;-85
2023/03/22 10:35:38;;;;;;;4.23;2.90;;;;;;;19.93;57.19;99135.59;6228093;22;20158;-87
2023/03/22 10:38:17;;;;;;;4.33;2.83;;;;;;;20.25;56.89;99140.28;6228204;22;20190;-87
2023/03/22 10:40:48;;;;;;;3.50;2.53;;;;;;;20.25;57.42;99131.34;6228245;22;20214;-87
2023/03/22 10:43:21;;;;;;;3.23;2.60;;;;;;;20.58;57.34;99127.56;6227729;22;20194;-88
2023/03/22 10:45:51;;;;;;;3.90;3.60;;;;;;;20.45;55.61;99117.44;6202266;22;20201;-86
2023/03/22 10:48:41;;;;;;;3.67;3.10;;;;;;;20.53;55.88;99117.56;6202382;22;20218;-87
2023/03/22 10:51:19;;;;;;;3.50;3.20;;;;;;;20.75;55.78;99121.59;6227577;22;20171;-87
2023/03/22 10:53:51;;;;;;;3.80;3.50;;;;;;;20.87;55.26;99121.91;6252253;22;20177;-86
2023/03/22 10:56:19;;;;;;;5.57;3.63;;;;;;;20.99;56.35;99123.06;6202804;22;20164;-87
2023/03/22 10:58:48;;;;;;;5.00;3.20;;;;;;;21.03;56.33;99123.28;6226974;22;20202;-87
2023/03/22 11:01:27;;;;;;;4.10;3.80;;;;;;;21.31;54.47;99127.69;6226667;22;20171;-86
2023/03/22 11:04:27;;;;;;;;;;;;;;;;;;;;;
2023/03/22 11:06:58;;;;;;;4.20;3.80;;;;;;;21.63;55.56;99125.97;6249309;22;20188;-88
2023/03/22 11:09:25;;;;;;;5.13;3.30;;;;;;;21.78;54.59;99125.66;6252660;22;20611;-86
2023/03/22 11:11:59;;;;;;;3.27;2.97;;;;;;;21.81;53.64;99116.84;6226005;22;20229;-86
2023/03/22 11:14:32;;;;;;;4.57;3.60;;;;;;;22.04;53.81;99115.00;6226462;22;20170;-86
2023/03/22 11:17:04;;;;;;;4.40;3.60;;;;;;;22.34;53.65;99117.88;6203593;22;20178;-85
2023/03/22 11:19:34;;;;;;;3.97;3.20;;;;;;;22.41;52.80;99117.41;6252644;22;20173;-85
2023/03/22 11:22:05;;;;;;;5.00;3.83;;;;;;;22.33;52.30;99115.44;6202252;22;20233;-87
2023/03/22 11:24:33;;;;;;;4.47;3.40;;;;;;;22.63;51.01;99113.91;6202232;22;20183;-86
2023/03/22 11:27:06;;;;;;;4.00;3.60;;;;;;;22.63;51.08;99106.50;6226997;22;20247;-85
2023/03/22 11:29:46;;;;;;;3.78;3.47;;;;;;;22.72;50.86;99101.94;6227238;22;20173;-84
2023/03/22 11:32:36;;;;;;;3.95;3.50;;;;;;;22.75;52.16;99105.97;6227856;22;20241;-85
2023/03/22 11:35:25;;;;;;;3.80;3.50;;;;;;;22.77;50.74;99095.53;6227163;22;20163;-87
2023/03/22 11:37:54;;;;;;;3.42;3.13;;;;;;;22.85;50.14;99097.53;6202236;22;20168;-84
2023/03/22 11:40:30;;;;;;;3.72;3.42;;;;;;;23.00;51.02;99090.84;6203698;22;20161;-84
2023/03/22 11:43:25;;;;;;;4.95;3.28;;;;;;;23.03;50.43;99090.22;6227697;22;20247;-84
2023/03/22 11:45:55;;;;;;;3.70;3.40;;;;;;;22.97;49.96;99086.81;6226774;22;20168;-86
2023/03/22 11:48:30;;;;;;;3.67;3.17;;;;;;;22.92;49.73;99086.13;6227752;22;20188;-84
2023/03/22 11:51:13;;;;;;;3.10;2.80;;;;;;;22.93;50.10;99074.91;6226988;22;20532;-85
2023/03/22 11:53:43;;;;;;;3.03;2.75;;;;;;;23.07;50.18;99074.81;6202131;22;20168;-85
2023/03/22 11:56:14;;;;;;;3.20;2.60;;;;;;;23.02;49.27;99077.66;6226096;22;20222;-85
2023/03/22 11:58:59;;;;;;;3.05;2.75;;;;;;;23.17;48.00;99074.53;6226574;22;20188;-86
2023/03/22 12:01:38;;;;;;;2.97;2.67;;;;;;;23.16;48.61;99072.91;6278806;22;20164;-85
2023/03/22 12:04:15;;;;;;;2.70;2.50;;;;;;;23.41;48.15;99065.94;6251262;22;20267;-86
2023/03/22 12:06:46;;;;;;;3.25;2.50;;;;;;;23.62;47.64;99066.97;6202184;22;20224;-85
2023/03/22 12:09:24;;;;;;;5.40;2.78;;;;;;;23.80;48.09;99067.81;6227104;22;20160;-85
2023/03/22 12:11:54;;;;;;;2.60;2.40;;;;;;;23.62;47.28;99069.72;6226197;22;20171;-86
2023/03/22 12:14:27;;;;;;;2.60;2.40;;;;;;;23.94;45.96;99054.78;6226606;22;20161;-86
2023/03/22 12:17:01;;;;;;;4.90;2.50;;;;;;;24.16;45.61;99054.69;6201153;22;20230;-85